createdAt,value
2023-05-05T00:00:21.704Z,3.88
2023-05-05T00:05:23.315Z,3.40
2023-05-05T00:10:27.025Z,4.00
2023-05-05T00:15:28.508Z,4.28
2023-05-05T00:20:30.079Z,5.38
2023-05-05T00:25:31.599Z,5.47
2023-05-05T00:30:33.604Z,4.15
2023-05-05T00:35:35.202Z,3.75
2023-05-05T00:40:36.991Z,4.20
2023-05-05T00:45:39.620Z,4.30
2023-05-05T00:50:43.253Z,3.83
2023-05-05T00:55:44.766Z,4.05
2023-05-05T01:00:46.288Z,4.70
2023-05-05T01:06:06.141Z,3.85
2023-05-05T01:11:17.297Z,4.05
2023-05-05T01:16:23.631Z,4.47
2023-05-05T01:21:38.152Z,4.95
2023-05-05T01:27:19.585Z,5.22
2023-05-05T01:32:28.074Z,4.57
2023-05-05T01:37:43.335Z,4.43
2023-05-05T01:42:48.229Z,4.57
2023-05-05T01:47:52.438Z,3.92
2023-05-05T01:52:56.089Z,4.10
2023-05-05T01:57:59.395Z,4.15
2023-05-05T02:03:03.511Z,4.10
2023-05-05T02:08:06.001Z,4.38
2023-05-05T02:13:10.495Z,4.95
2023-05-05T02:18:12.992Z,4.78
2023-05-05T02:23:14.507Z,5.15
2023-05-05T02:28:21.157Z,4.53
2023-05-05T02:38:28.608Z,4.55
2023-05-05T02:43:37.586Z,5.13
2023-05-05T02:48:39.426Z,4.55
2023-05-05T02:53:41.069Z,4.30
2023-05-05T02:58:56.883Z,4.53
2023-05-05T03:04:01.794Z,5.80
2023-05-05T03:09:12.712Z,4.72
2023-05-05T03:14:19.687Z,4.68
2023-05-05T03:19:24.308Z,5.93
2023-05-05T03:24:30.951Z,4.68
2023-05-05T03:29:38.582Z,5.18
2023-05-05T03:34:44.879Z,4.93
2023-05-05T03:39:46.555Z,4.95
2023-05-05T03:44:48.767Z,4.85
2023-05-05T03:49:50.625Z,6.00
2023-05-05T03:54:52.338Z,4.65
2023-05-05T03:59:53.914Z,5.80
2023-05-05T04:04:55.473Z,6.15
2023-05-05T04:09:57.325Z,5.07
2023-05-05T04:14:58.972Z,5.35
2023-05-05T04:20:00.617Z,5.85
2023-05-05T04:25:02.582Z,5.95
2023-05-05T04:30:04.930Z,5.75
2023-05-05T04:35:08.336Z,6.03
2023-05-05T04:40:10.384Z,6.22
2023-05-05T04:45:13.686Z,6.28
2023-05-05T04:50:16.099Z,6.40
2023-05-05T04:55:17.784Z,6.22
2023-05-05T05:00:19.409Z,6.05
2023-05-05T05:05:20.937Z,7.25
2023-05-05T05:10:22.559Z,6.03
2023-05-05T05:15:27.579Z,5.53
2023-05-05T05:20:30.721Z,5.63
2023-05-05T05:25:32.294Z,5.85
2023-05-05T05:30:34.321Z,4.78
2023-05-05T05:35:38.576Z,5.07
2023-05-05T05:40:40.845Z,5.55
2023-05-05T05:45:42.849Z,4.78
2023-05-05T05:50:44.992Z,6.13
2023-05-05T05:55:46.732Z,4.68
2023-05-05T06:00:49.181Z,4.95
2023-05-05T06:05:51.143Z,4.95
2023-05-05T06:10:53.761Z,5.00
2023-05-05T06:15:56.092Z,5.47
2023-05-05T06:20:58.255Z,5.97
2023-05-05T06:26:02.644Z,5.50
2023-05-05T06:31:04.191Z,5.75
2023-05-05T06:36:05.885Z,4.90
2023-05-05T06:41:07.525Z,5.85
2023-05-05T06:46:09.089Z,5.93
2023-05-05T06:51:10.567Z,6.18
2023-05-05T06:56:12.109Z,5.43
2023-05-05T07:01:13.668Z,6.32
2023-05-05T07:06:15.185Z,5.97
2023-05-05T07:11:16.709Z,6.18
2023-05-05T07:16:18.264Z,5.47
2023-05-05T07:21:19.854Z,7.45
2023-05-05T07:26:21.404Z,7.25
2023-05-05T07:31:23.279Z,7.72
2023-05-05T07:36:24.924Z,9.85
2023-05-05T07:41:26.596Z,10.15
2023-05-05T07:46:28.291Z,8.77
2023-05-05T07:51:29.853Z,9.43
2023-05-05T07:56:31.509Z,8.20
2023-05-05T08:01:33.102Z,7.88
2023-05-05T08:06:34.596Z,6.20
2023-05-05T08:11:36.173Z,5.32
2023-05-05T08:16:37.797Z,6.50
2023-05-05T08:21:39.295Z,6.15
2023-05-05T08:26:40.835Z,6.20
2023-05-05T08:31:42.389Z,4.68
2023-05-05T08:36:43.938Z,5.05
2023-05-05T08:41:45.470Z,4.32
2023-05-05T08:46:49.144Z,5.10
2023-05-05T08:51:52.099Z,6.03
2023-05-05T08:56:55.169Z,4.32
2023-05-05T09:01:58.389Z,4.65
2023-05-05T09:07:00.453Z,3.95
2023-05-05T09:12:02.371Z,4.30
2023-05-05T09:17:04.094Z,4.32
2023-05-05T09:22:05.704Z,5.10
2023-05-05T09:27:21.559Z,6.25
2023-05-05T09:32:23.145Z,5.88
2023-05-05T09:37:31.428Z,6.97
2023-05-05T09:42:32.961Z,6.22
2023-05-05T09:47:37.638Z,5.78
2023-05-05T09:52:39.281Z,6.28
2023-05-05T09:57:40.790Z,6.95
2023-05-05T10:02:42.431Z,6.00
2023-05-05T10:07:45.759Z,6.63
2023-05-05T10:12:48.460Z,5.57
2023-05-05T10:18:06.186Z,6.70
2023-05-05T10:23:14.971Z,6.65
2023-05-05T10:28:21.452Z,7.05
2023-05-05T10:33:32.324Z,4.35
2023-05-05T10:38:35.383Z,3.97
2023-05-05T10:43:37.407Z,4.70
2023-05-05T10:48:57.452Z,5.10
2023-05-05T10:54:07.848Z,5.65
2023-05-05T10:59:37.301Z,4.78
2023-05-05T11:04:38.803Z,4.45
2023-05-05T11:09:56.635Z,4.25
2023-05-05T11:15:24.139Z,3.75
2023-05-05T11:20:37.677Z,4.50
2023-05-05T11:25:39.123Z,4.55
2023-05-05T11:30:56.132Z,1.98
2023-05-05T11:36:00.986Z,1.42
2023-05-05T11:41:26.160Z,3.30
2023-05-05T11:46:27.700Z,1.85
2023-05-05T11:51:29.224Z,2.92
2023-05-05T11:56:30.742Z,4.25
2023-05-05T12:01:32.889Z,4.88
2023-05-05T12:06:34.453Z,5.68
2023-05-05T12:11:50.679Z,4.60
2023-05-05T12:16:58.924Z,4.80
2023-05-05T12:22:01.503Z,4.20
2023-05-05T12:27:10.651Z,3.63
2023-05-05T12:32:25.708Z,2.42
2023-05-05T12:37:27.498Z,2.33
2023-05-05T12:42:29.226Z,2.05
2023-05-05T12:47:32.538Z,2.00
2023-05-05T12:52:44.846Z,2.25
2023-05-05T12:58:02.033Z,2.45
2023-05-05T13:03:03.699Z,2.33
2023-05-05T13:08:05.355Z,2.70
2023-05-05T13:13:06.882Z,2.90
2023-05-05T13:18:08.506Z,2.78
2023-05-05T13:23:10.055Z,2.60
2023-05-05T13:28:11.574Z,3.05
2023-05-05T13:33:13.061Z,2.97
2023-05-05T13:38:14.586Z,2.92
2023-05-05T13:43:16.068Z,2.78
2023-05-05T13:48:17.560Z,2.60
2023-05-05T13:53:19.049Z,2.90
2023-05-05T13:58:20.559Z,3.30
2023-05-05T14:03:22.180Z,3.30
2023-05-05T14:08:23.735Z,3.38
2023-05-05T14:13:25.317Z,3.20
2023-05-05T14:18:26.990Z,3.20
2023-05-05T14:23:28.594Z,3.15
2023-05-05T14:28:30.130Z,2.90
2023-05-05T14:33:31.685Z,3.60
2023-05-05T14:38:33.257Z,2.80
2023-05-05T14:43:35.167Z,3.28
2023-05-05T14:48:36.753Z,3.00
2023-05-05T14:53:38.258Z,2.60
2023-05-05T14:58:39.873Z,2.00
2023-05-05T15:03:41.581Z,2.05
2023-05-05T15:08:44.422Z,2.58
2023-05-05T15:13:46.164Z,2.92
2023-05-05T15:18:47.853Z,3.03
2023-05-05T15:23:49.435Z,3.15
2023-05-05T15:28:50.920Z,2.65
2023-05-05T15:33:52.526Z,2.72
2023-05-05T15:38:55.070Z,2.17
2023-05-05T15:43:56.690Z,2.10
2023-05-05T15:48:58.187Z,3.53
2023-05-05T15:53:59.831Z,2.67
2023-05-05T15:59:01.359Z,2.10
2023-05-05T16:04:02.981Z,2.35
2023-05-05T16:09:04.747Z,2.53
2023-05-05T16:14:06.431Z,1.48
2023-05-05T16:19:07.985Z,1.35
2023-05-05T16:24:09.576Z,1.70
2023-05-05T16:29:12.083Z,1.02
2023-05-05T16:34:13.715Z,1.40
2023-05-05T16:39:15.231Z,1.60
2023-05-05T16:44:16.957Z,1.60
2023-05-05T16:49:18.659Z,1.35
2023-05-05T16:54:20.193Z,1.73
2023-05-05T16:59:21.745Z,1.92
2023-05-05T17:04:23.293Z,2.13
2023-05-05T17:09:24.856Z,2.88
2023-05-05T17:14:26.400Z,3.58
2023-05-05T17:19:27.945Z,4.05
2023-05-05T17:24:29.708Z,1.67
2023-05-05T17:29:31.337Z,2.55
2023-05-05T17:34:32.892Z,2.40
2023-05-05T17:39:34.567Z,2.58
2023-05-05T17:44:36.211Z,2.10
2023-05-05T17:49:37.809Z,7.07
2023-05-05T17:54:39.278Z,10.43
2023-05-05T17:59:40.973Z,3.45
2023-05-05T18:04:42.600Z,3.17
2023-05-05T18:09:44.294Z,5.15
2023-05-05T18:14:45.802Z,4.85
2023-05-05T18:19:49.061Z,2.80
2023-05-05T18:24:50.801Z,2.55
2023-05-05T18:29:52.657Z,3.78
2023-05-05T18:34:54.200Z,4.43
2023-05-05T18:39:56.055Z,4.97
2023-05-05T18:44:57.755Z,5.57
2023-05-05T18:49:59.258Z,6.88
2023-05-05T18:55:00.797Z,6.88
2023-05-05T19:00:02.458Z,7.40
2023-05-05T19:05:04.264Z,8.38
2023-05-05T19:10:06.567Z,9.40
2023-05-05T19:15:08.706Z,9.43
2023-05-05T19:20:10.882Z,8.93
2023-05-05T19:25:13.953Z,9.98
2023-05-05T19:30:15.547Z,10.50
2023-05-05T19:35:17.311Z,10.63
2023-05-05T19:40:18.898Z,10.68
2023-05-05T19:45:20.415Z,16.48
2023-05-05T19:50:22.204Z,12.40
2023-05-05T19:55:23.848Z,11.80
2023-05-05T20:00:25.453Z,11.95
2023-05-05T20:05:27.021Z,10.65
2023-05-05T20:10:28.582Z,11.60
2023-05-05T20:15:31.419Z,14.95
2023-05-05T20:20:34.200Z,16.83
2023-05-05T20:25:35.713Z,18.25
2023-05-05T20:30:37.226Z,19.60
2023-05-05T20:35:38.787Z,19.95
2023-05-05T20:40:40.690Z,22.38
2023-05-05T20:45:42.223Z,21.95
2023-05-05T20:50:43.786Z,21.02
2023-05-05T20:55:45.452Z,20.25
2023-05-05T21:00:47.027Z,20.63
2023-05-05T21:05:48.610Z,20.48
2023-05-05T21:10:50.162Z,23.27
2023-05-05T21:15:51.692Z,24.42
2023-05-05T21:20:53.445Z,23.35
2023-05-05T21:25:55.188Z,26.02
2023-05-05T21:31:19.621Z,24.00
2023-05-05T21:36:18.288Z,27.77
2023-05-05T21:41:19.841Z,30.40
2023-05-05T21:46:21.467Z,32.30
2023-05-05T21:51:22.982Z,31.58
2023-05-05T21:56:24.529Z,32.63
2023-05-05T22:01:26.189Z,32.55
2023-05-05T22:06:27.711Z,31.73
2023-05-05T22:11:29.230Z,34.88
2023-05-05T22:16:30.747Z,30.63
2023-05-05T22:21:32.341Z,33.50
2023-05-05T22:26:33.971Z,32.03
2023-05-05T22:31:36.260Z,36.13
2023-05-05T22:36:37.805Z,36.42
2023-05-05T22:41:39.343Z,29.42
2023-05-05T22:46:40.997Z,32.75
2023-05-05T22:51:42.604Z,35.45
2023-05-05T22:56:44.172Z,27.00
2023-05-05T23:01:45.678Z,28.00
2023-05-05T23:06:47.184Z,32.08
2023-05-05T23:11:48.677Z,29.45
2023-05-05T23:16:50.315Z,27.45
2023-05-05T23:21:53.601Z,31.15
2023-05-05T23:26:58.227Z,29.17
2023-05-05T23:31:59.736Z,32.17
2023-05-05T23:37:01.271Z,34.33
2023-05-05T23:42:02.760Z,36.75
2023-05-05T23:47:04.327Z,34.35
2023-05-05T23:52:05.847Z,37.53
2023-05-05T23:57:07.420Z,37.45
